createdAt,value
2018-01-31T01:52:47.515Z,99.90
2018-01-31T01:55:15.849Z,99.90
2018-01-31T01:57:44.256Z,99.90
2018-01-31T02:00:12.659Z,99.90
2018-01-31T02:02:41.021Z,99.90
2018-01-31T02:05:09.368Z,99.90
2018-01-31T02:07:37.717Z,99.90
2018-01-31T02:10:06.224Z,99.90
2018-01-31T02:12:35.317Z,99.90
2018-01-31T02:15:03.717Z,99.90
2018-01-31T02:17:32.054Z,99.30
2018-01-31T02:20:00.486Z,99.10
2018-01-31T02:22:28.888Z,99.30
2018-01-31T02:24:57.383Z,99.20
2018-01-31T02:27:25.765Z,99.30
2018-01-31T02:29:54.098Z,98.70
2018-01-31T02:32:22.418Z,99.30
2018-01-31T02:34:50.777Z,99.30
2018-01-31T02:37:19.152Z,99.30
2018-01-31T02:40:02.308Z,99.40
2018-01-31T02:42:30.646Z,99.50
2018-01-31T02:44:59.006Z,99.50
2018-01-31T02:47:27.361Z,99.50
2018-01-31T02:49:56.436Z,99.80
2018-01-31T02:59:12.913Z,99.50
2018-01-31T03:01:41.258Z,99.50
2018-01-31T03:04:09.689Z,99.50
2018-01-31T03:06:38.020Z,99.60
2018-01-31T03:09:06.381Z,99.90
2018-01-31T03:11:34.770Z,99.50
2018-01-31T03:14:03.099Z,99.50
2018-01-31T03:16:31.511Z,99.60
2018-01-31T03:18:59.872Z,99.70
2018-01-31T03:21:28.199Z,99.50
2018-01-31T03:23:56.533Z,99.50
2018-01-31T03:26:24.875Z,99.60
2018-01-31T03:28:53.972Z,99.60
2018-01-31T03:31:23.095Z,99.60
2018-01-31T03:33:51.414Z,99.60
2018-01-31T03:36:19.756Z,99.60
2018-01-31T03:38:48.196Z,99.60
2018-01-31T03:41:17.316Z,99.70
2018-01-31T03:43:45.673Z,99.60
2018-01-31T03:46:13.994Z,99.60
2018-01-31T03:48:42.333Z,99.90
2018-01-31T03:51:11.432Z,99.80
2018-01-31T03:53:40.543Z,99.90
2018-01-31T03:56:08.883Z,99.80
2018-01-31T03:58:37.405Z,99.90
2018-01-31T04:01:06.503Z,99.90
2018-01-31T04:03:34.849Z,99.90
2018-01-31T04:06:03.198Z,99.90
2018-01-31T04:08:31.579Z,99.90
2018-01-31T04:10:59.934Z,99.90
2018-01-31T04:13:28.407Z,99.90
2018-01-31T04:15:56.734Z,99.90
2018-01-31T04:18:25.172Z,99.90
2018-01-31T04:20:53.639Z,99.90
2018-01-31T04:23:21.981Z,99.90
2018-01-31T04:25:50.313Z,99.90
2018-01-31T04:28:18.672Z,99.90
2018-01-31T04:30:47.012Z,99.90
2018-01-31T04:33:15.441Z,99.90
2018-01-31T04:35:43.836Z,99.90
2018-01-31T04:38:12.201Z,99.90
2018-01-31T04:40:40.568Z,99.90
2018-01-31T04:43:08.905Z,99.90
2018-01-31T04:45:37.320Z,99.90
2018-01-31T04:48:05.672Z,99.90
2018-01-31T04:50:34.159Z,99.90
2018-01-31T04:53:03.260Z,99.90
2018-01-31T04:55:31.674Z,99.90
2018-01-31T04:58:00.084Z,99.90
2018-01-31T05:00:28.407Z,99.90
2018-01-31T05:02:57.595Z,99.90
2018-01-31T05:05:26.728Z,99.90
2018-01-31T05:07:55.069Z,99.90
2018-01-31T05:10:23.500Z,99.90
2018-01-31T05:12:51.863Z,99.90
2018-01-31T05:15:20.221Z,99.90
2018-01-31T05:17:49.326Z,99.90
2018-01-31T05:20:17.676Z,99.90
2018-01-31T05:22:46.044Z,99.90
2018-01-31T05:25:14.480Z,99.90
2018-01-31T05:27:42.859Z,99.90
2018-01-31T05:30:11.300Z,99.90
2018-01-31T05:32:39.649Z,99.90
2018-01-31T05:35:07.975Z,99.90
2018-01-31T05:37:37.108Z,99.90
2018-01-31T05:40:05.482Z,99.90
2018-01-31T05:42:33.835Z,99.90
2018-01-31T05:45:02.194Z,99.90
2018-01-31T05:47:31.302Z,99.90
2018-01-31T05:50:00.422Z,99.90
2018-01-31T05:52:28.825Z,99.90
2018-01-31T05:54:57.165Z,99.90
2018-01-31T05:57:25.502Z,99.90
2018-01-31T05:59:53.877Z,99.90
2018-01-31T06:02:22.333Z,99.90
2018-01-31T06:04:50.697Z,99.90
2018-01-31T06:07:19.057Z,99.90
2018-01-31T06:09:47.485Z,99.90
2018-01-31T06:12:15.852Z,99.90
2018-01-31T06:14:44.182Z,99.90
2018-01-31T06:17:12.555Z,99.90
2018-01-31T06:19:40.890Z,99.90
2018-01-31T06:22:09.247Z,99.90
2018-01-31T06:24:37.592Z,99.90
2018-01-31T06:27:06.863Z,99.90
2018-01-31T06:29:35.307Z,99.90
2018-01-31T06:32:03.644Z,99.90
2018-01-31T06:34:31.997Z,99.90
2018-01-31T06:37:00.344Z,99.90
2018-01-31T06:39:28.786Z,99.90
2018-01-31T06:41:57.196Z,99.90
2018-01-31T06:44:25.557Z,99.90
2018-01-31T06:46:54.899Z,99.90
2018-01-31T06:49:23.278Z,99.90
2018-01-31T06:51:51.644Z,99.90
2018-01-31T06:54:20.028Z,99.90
2018-01-31T06:56:48.358Z,99.90
2018-01-31T06:59:17.576Z,99.90
2018-01-31T07:01:46.739Z,99.90
2018-01-31T07:04:15.197Z,99.90
2018-01-31T07:06:43.535Z,99.90
2018-01-31T07:09:12.700Z,99.90
2018-01-31T07:11:41.028Z,99.90
2018-01-31T07:14:09.412Z,99.90
2018-01-31T07:16:37.747Z,99.90
2018-01-31T07:19:06.087Z,99.90
2018-01-31T07:21:34.427Z,99.90
2018-01-31T07:24:02.771Z,99.90
2018-01-31T07:26:31.247Z,99.90
2018-01-31T07:28:59.576Z,99.90
2018-01-31T07:31:27.957Z,99.90
2018-01-31T07:33:56.356Z,99.90
2018-01-31T07:36:24.843Z,99.90
2018-01-31T07:38:53.745Z,99.90
2018-01-31T07:41:22.259Z,99.90
2018-01-31T07:43:50.639Z,99.90
2018-01-31T07:46:19.055Z,99.90
2018-01-31T07:48:47.381Z,99.90
2018-01-31T07:51:15.869Z,99.90
2018-01-31T07:53:45.237Z,99.90
2018-01-31T07:56:13.694Z,99.90
2018-01-31T07:58:44.122Z,99.90
2018-01-31T08:01:13.367Z,99.90
2018-01-31T08:03:41.735Z,99.90
2018-01-31T08:06:10.069Z,99.90
2018-01-31T08:08:38.470Z,99.90
2018-01-31T08:11:06.823Z,99.90
2018-01-31T08:13:35.942Z,99.90
2018-01-31T08:16:04.283Z,99.90
2018-01-31T08:18:32.603Z,99.90
2018-01-31T08:21:00.983Z,99.90
2018-01-31T08:23:29.376Z,99.90
2018-01-31T08:25:57.849Z,99.90
2018-01-31T08:28:26.193Z,99.90
2018-01-31T08:30:55.331Z,99.90
2018-01-31T08:33:23.701Z,99.90
2018-01-31T08:35:52.031Z,99.90
2018-01-31T08:38:20.388Z,99.90
2018-01-31T08:40:48.771Z,99.90
2018-01-31T08:43:17.130Z,99.90
2018-01-31T08:45:45.527Z,99.90
2018-01-31T08:48:13.943Z,99.90
2018-01-31T08:50:43.030Z,99.90
2018-01-31T08:53:12.122Z,99.90
2018-01-31T08:55:40.470Z,99.90
2018-01-31T08:58:08.883Z,99.90
2018-01-31T09:00:38.018Z,99.90
2018-01-31T09:03:06.923Z,99.90
2018-01-31T09:05:35.264Z,99.90
2018-01-31T09:08:03.587Z,99.90
2018-01-31T09:10:31.920Z,99.90
2018-01-31T09:13:01.048Z,99.90
2018-01-31T09:15:29.444Z,99.90
2018-01-31T09:17:57.802Z,99.90
2018-01-31T09:20:26.160Z,99.90
2018-01-31T09:22:54.716Z,99.90
2018-01-31T09:25:23.063Z,99.90
2018-01-31T09:27:51.406Z,99.90
2018-01-31T09:30:20.502Z,99.90
2018-01-31T09:32:48.920Z,99.90
2018-01-31T09:35:17.262Z,99.90
2018-01-31T09:37:45.609Z,99.90
2018-01-31T09:40:14.049Z,99.90
2018-01-31T09:42:42.373Z,99.90
2018-01-31T09:45:10.728Z,99.90
2018-01-31T09:47:39.156Z,99.90
2018-01-31T09:50:07.495Z,99.90
2018-01-31T09:52:35.884Z,99.90
2018-01-31T09:55:04.211Z,99.90
2018-01-31T09:57:32.566Z,99.90
2018-01-31T10:00:01.680Z,99.90
2018-01-31T10:02:30.130Z,99.90
2018-01-31T10:04:58.443Z,99.90
2018-01-31T10:07:26.821Z,99.90
2018-01-31T10:09:55.166Z,99.90
2018-01-31T10:12:24.312Z,99.90
2018-01-31T10:14:52.674Z,99.90
2018-01-31T10:17:21.628Z,99.90
2018-01-31T10:19:49.997Z,99.90
2018-01-31T10:22:18.351Z,99.90
2018-01-31T10:24:46.768Z,99.90
2018-01-31T10:27:15.102Z,99.90
2018-01-31T10:29:43.461Z,99.90
2018-01-31T10:32:11.864Z,99.90
2018-01-31T10:34:40.177Z,99.90
2018-01-31T10:37:08.519Z,99.90
2018-01-31T10:39:36.855Z,99.90
2018-01-31T10:42:05.937Z,99.90
2018-01-31T10:44:34.308Z,99.90
2018-01-31T10:47:02.645Z,99.90
2018-01-31T10:49:30.989Z,99.90
2018-01-31T10:52:00.098Z,99.90
2018-01-31T10:59:25.216Z,99.90
2018-01-31T11:01:54.315Z,99.90
2018-01-31T11:04:23.411Z,99.90
2018-01-31T11:06:52.511Z,99.90
2018-01-31T11:09:20.857Z,99.90
2018-01-31T11:11:49.281Z,99.90
2018-01-31T11:14:17.623Z,99.90
2018-01-31T11:16:45.948Z,99.90
2018-01-31T11:19:14.315Z,99.90
2018-01-31T11:21:42.737Z,99.90
2018-01-31T11:24:11.114Z,99.90
2018-01-31T11:26:39.473Z,99.90
2018-01-31T11:29:07.857Z,99.90
2018-01-31T11:31:36.308Z,99.90
2018-01-31T11:34:04.648Z,99.90
2018-01-31T11:36:32.996Z,99.90
2018-01-31T11:39:01.361Z,99.90
2018-01-31T11:41:29.693Z,99.90
2018-01-31T11:43:58.059Z,99.90
2018-01-31T11:46:26.400Z,99.90
2018-01-31T11:48:54.770Z,99.90
2018-01-31T11:51:23.304Z,99.90
2018-01-31T11:53:51.584Z,99.90
2018-01-31T11:56:19.915Z,99.90
2018-01-31T11:58:48.288Z,99.90
2018-01-31T12:01:16.673Z,99.90
2018-01-31T12:03:45.142Z,99.90
2018-01-31T12:06:14.325Z,99.90
2018-01-31T12:08:43.501Z,99.90
2018-01-31T12:11:11.839Z,99.90
2018-01-31T12:17:03.979Z,99.90
2018-01-31T12:22:59.531Z,99.90
2018-01-31T12:25:39.806Z,99.90
2018-01-31T12:31:26.631Z,99.90
2018-01-31T12:34:07.028Z,99.90
2018-01-31T12:36:47.332Z,99.90
2018-01-31T12:39:15.202Z,99.90
2018-01-31T12:41:43.064Z,99.90
2018-01-31T12:44:10.947Z,99.90
2018-01-31T12:46:51.239Z,99.90
2018-01-31T12:49:31.378Z,99.90
2018-01-31T12:52:11.527Z,99.90
2018-01-31T12:54:51.876Z,99.90
2018-01-31T13:00:32.797Z,99.90
2018-01-31T13:03:01.740Z,99.90
2018-01-31T13:05:42.719Z,99.90
2018-01-31T13:08:22.817Z,99.90
2018-01-31T13:11:03.044Z,99.90
2018-01-31T13:13:43.720Z,99.90
2018-01-31T13:16:24.117Z,99.90
2018-01-31T13:25:15.229Z,99.90
2018-01-31T13:28:01.367Z,99.90
2018-01-31T13:30:41.638Z,99.90
2018-01-31T13:33:26.045Z,99.90
2018-01-31T13:36:06.252Z,99.90
2018-01-31T13:38:46.622Z,99.90
2018-01-31T13:41:26.820Z,99.90
2018-01-31T13:47:12.768Z,99.90
2018-01-31T13:49:53.061Z,99.90
2018-01-31T13:52:33.167Z,99.90
2018-01-31T13:55:14.280Z,99.90
2018-01-31T13:57:55.189Z,99.90
2018-01-31T14:00:35.429Z,99.90
2018-01-31T14:03:15.824Z,99.90
2018-01-31T14:05:56.167Z,99.90
2018-01-31T14:08:36.665Z,99.90
2018-01-31T14:11:16.882Z,99.90
2018-01-31T14:13:57.163Z,99.90
2018-01-31T14:16:37.309Z,99.90
2018-01-31T14:25:21.335Z,99.90
2018-01-31T14:28:01.710Z,99.90
2018-01-31T14:30:42.803Z,99.90
2018-01-31T14:33:24.140Z,99.90
2018-01-31T14:36:04.330Z,99.90
2018-01-31T14:38:32.180Z,99.90
2018-01-31T14:41:00.144Z,99.90
2018-01-31T14:43:28.084Z,99.90
2018-01-31T14:45:55.962Z,99.90
2018-01-31T14:48:23.784Z,99.90
2018-01-31T14:50:52.433Z,99.90
2018-01-31T14:53:20.268Z,99.90
2018-01-31T14:55:48.137Z,99.90
2018-01-31T14:58:15.999Z,99.90
2018-01-31T15:00:43.882Z,99.90
2018-01-31T15:03:11.720Z,99.90
2018-01-31T15:05:39.543Z,99.90
2018-01-31T15:08:08.263Z,99.90
2018-01-31T15:10:36.274Z,99.90
2018-01-31T15:13:04.107Z,99.90
2018-01-31T15:15:31.942Z,99.90
2018-01-31T15:18:00.573Z,99.90
2018-01-31T15:20:28.423Z,99.90
2018-01-31T15:22:56.255Z,99.90
2018-01-31T15:25:24.115Z,99.90
2018-01-31T15:27:51.942Z,99.90
2018-01-31T15:30:19.815Z,99.90
2018-01-31T15:32:47.879Z,99.90
2018-01-31T15:35:15.716Z,99.90
2018-01-31T15:37:44.336Z,99.90
2018-01-31T15:40:12.161Z,99.90
2018-01-31T15:42:40.802Z,99.90
2018-01-31T15:45:08.764Z,99.90
2018-01-31T15:47:36.609Z,99.90
2018-01-31T15:50:04.575Z,99.90
2018-01-31T15:52:32.468Z,99.90
2018-01-31T15:55:00.293Z,99.90
2018-01-31T15:57:28.159Z,99.90
2018-01-31T15:59:56.876Z,99.90
2018-01-31T16:02:25.715Z,99.90
2018-01-31T16:04:53.600Z,99.90
2018-01-31T16:07:21.605Z,99.90
2018-01-31T16:09:49.433Z,99.90
2018-01-31T16:12:18.038Z,99.90
2018-01-31T16:14:45.871Z,99.90
2018-01-31T16:17:14.286Z,99.90
2018-01-31T16:19:54.605Z,99.90
2018-01-31T16:22:22.924Z,99.90
2018-01-31T16:24:51.283Z,99.90
2018-01-31T16:27:24.235Z,99.90
2018-01-31T16:30:17.260Z,99.90
2018-01-31T16:35:50.324Z,99.90
2018-01-31T16:38:18.672Z,99.90
2018-01-31T16:40:47.033Z,99.90
2018-01-31T16:43:15.359Z,99.90
2018-01-31T16:45:44.526Z,99.90
2018-01-31T16:48:12.861Z,99.90
2018-01-31T16:50:41.918Z,99.90
2018-01-31T16:53:10.287Z,99.90
2018-01-31T16:55:38.614Z,99.90
2018-01-31T16:58:07.429Z,99.90
2018-01-31T17:00:36.599Z,99.90
2018-01-31T17:03:04.936Z,99.90
2018-01-31T17:05:33.400Z,99.90
2018-01-31T17:08:01.856Z,99.90
2018-01-31T17:10:30.230Z,99.90
2018-01-31T17:12:58.973Z,99.90
2018-01-31T17:15:27.336Z,99.90
2018-01-31T17:17:55.736Z,99.90
2018-01-31T17:20:24.052Z,99.90
2018-01-31T17:22:52.434Z,99.90
2018-01-31T17:25:20.793Z,99.90
2018-01-31T17:27:49.125Z,99.90
2018-01-31T17:30:17.500Z,99.90
2018-01-31T17:32:45.814Z,99.90
2018-01-31T17:35:15.045Z,99.90
2018-01-31T17:37:43.439Z,99.90
2018-01-31T17:40:11.757Z,99.90
2018-01-31T17:42:40.094Z,99.90
2018-01-31T17:45:08.456Z,99.90
2018-01-31T17:47:36.799Z,99.90
2018-01-31T17:50:05.131Z,99.90
2018-01-31T17:52:33.493Z,99.90
2018-01-31T17:55:01.846Z,99.90
2018-01-31T17:57:30.228Z,99.90
2018-01-31T17:59:58.561Z,99.90
2018-01-31T18:02:26.905Z,99.90
2018-01-31T18:04:55.246Z,99.90
2018-01-31T18:07:23.682Z,99.90
2018-01-31T18:09:52.039Z,99.90
2018-01-31T18:12:20.361Z,99.90
2018-01-31T18:14:48.839Z,99.90
2018-01-31T18:17:17.199Z,99.90
2018-01-31T18:19:45.577Z,99.90
2018-01-31T18:22:13.974Z,99.90
2018-01-31T18:24:42.322Z,99.90
2018-01-31T18:27:10.736Z,99.90
2018-01-31T18:29:39.097Z,99.90
2018-01-31T18:32:07.466Z,99.90
2018-01-31T18:34:36.670Z,99.90
2018-01-31T18:37:05.081Z,99.90
2018-01-31T18:39:33.435Z,99.90
2018-01-31T18:42:01.763Z,99.90
2018-01-31T18:44:30.129Z,99.90
2018-01-31T18:46:58.475Z,99.90
2018-01-31T18:49:27.020Z,99.90
2018-01-31T18:51:56.271Z,99.90
2018-01-31T18:54:24.610Z,99.90
2018-01-31T18:56:52.992Z,99.90
2018-01-31T18:59:22.077Z,99.90
2018-01-31T19:01:51.222Z,99.90
2018-01-31T19:04:19.541Z,99.90
2018-01-31T19:06:47.886Z,99.90
2018-01-31T19:09:16.443Z,99.90
2018-01-31T19:11:44.769Z,99.90
2018-01-31T19:14:13.480Z,99.90
2018-01-31T19:16:41.964Z,99.90
2018-01-31T19:19:10.416Z,99.90
2018-01-31T19:21:38.753Z,99.90
2018-01-31T19:24:07.095Z,99.90
2018-01-31T19:26:36.837Z,99.90
2018-01-31T19:29:05.236Z,99.90
2018-01-31T19:31:33.595Z,99.90
2018-01-31T19:34:01.980Z,99.90
2018-01-31T19:36:30.665Z,99.90
2018-01-31T19:38:59.039Z,99.90
2018-01-31T19:41:27.401Z,99.90
2018-01-31T19:43:57.520Z,99.90
2018-01-31T19:46:25.863Z,99.90
2018-01-31T19:48:54.207Z,99.90
2018-01-31T19:51:22.575Z,99.90
2018-01-31T19:53:50.920Z,99.90
2018-01-31T19:56:20.047Z,99.90
2018-01-31T19:58:48.369Z,99.90
2018-01-31T20:01:16.908Z,99.90
2018-01-31T20:03:45.426Z,99.90
2018-01-31T20:06:14.066Z,99.90
2018-01-31T20:08:43.153Z,99.90
2018-01-31T20:11:11.503Z,99.90
2018-01-31T20:13:39.868Z,99.90
2018-01-31T20:16:08.217Z,99.90
2018-01-31T20:18:36.714Z,99.90
2018-01-31T20:21:05.026Z,99.90
2018-01-31T20:23:33.379Z,99.90
2018-01-31T20:26:01.721Z,99.90
2018-01-31T20:28:30.090Z,99.90
2018-01-31T20:30:58.485Z,99.90
2018-01-31T20:33:26.838Z,99.90
2018-01-31T20:35:56.019Z,99.90
2018-01-31T20:38:24.367Z,99.90
2018-01-31T20:40:52.827Z,99.90
2018-01-31T20:43:21.183Z,99.90
2018-01-31T20:45:50.396Z,99.90
2018-01-31T20:48:18.724Z,99.90
2018-01-31T20:50:47.155Z,99.90
2018-01-31T20:53:15.488Z,99.90
2018-01-31T20:55:43.890Z,99.90
2018-01-31T20:58:13.002Z,99.90
2018-01-31T21:00:41.481Z,99.90
2018-01-31T21:03:09.886Z,99.90
2018-01-31T21:05:39.110Z,99.90
2018-01-31T21:08:07.497Z,99.90
2018-01-31T21:10:35.936Z,99.90
2018-01-31T21:13:04.259Z,99.90
2018-01-31T21:15:33.337Z,99.90
2018-01-31T21:18:01.696Z,99.90
2018-01-31T21:20:30.190Z,99.90
2018-01-31T21:22:58.533Z,99.90
2018-01-31T21:25:26.892Z,99.90
2018-01-31T21:27:55.991Z,99.90
2018-01-31T21:30:25.093Z,99.90
2018-01-31T21:32:53.445Z,99.90
2018-01-31T21:35:21.798Z,99.90
2018-01-31T21:37:50.193Z,99.90
2018-01-31T21:40:18.970Z,99.90
2018-01-31T21:42:47.371Z,99.90
2018-01-31T21:45:15.704Z,99.90
2018-01-31T21:47:44.089Z,99.90
2018-01-31T21:50:12.472Z,99.90
2018-01-31T21:52:40.988Z,99.90
2018-01-31T21:55:09.345Z,99.90
2018-01-31T21:57:49.692Z,99.90
2018-01-31T22:00:18.136Z,99.90
2018-01-31T22:02:46.770Z,99.90
2018-01-31T22:05:15.564Z,99.90
2018-01-31T22:07:43.941Z,99.90
2018-01-31T22:10:12.286Z,99.90
2018-01-31T22:12:40.636Z,99.90
2018-01-31T22:15:08.989Z,99.90
2018-01-31T22:17:37.361Z,99.90
2018-01-31T22:20:05.683Z,99.90
2018-01-31T22:22:34.013Z,99.90
2018-01-31T22:25:02.361Z,99.90
2018-01-31T22:27:30.736Z,99.90
2018-01-31T22:29:59.106Z,99.90
2018-01-31T22:32:27.438Z,99.90
2018-01-31T22:34:55.793Z,99.90
2018-01-31T22:37:24.164Z,99.90
2018-01-31T22:39:52.490Z,99.90
2018-01-31T22:42:20.984Z,99.90
2018-01-31T22:44:49.481Z,99.90
2018-01-31T22:47:17.931Z,99.90
2018-01-31T22:49:46.286Z,99.90
2018-01-31T22:52:14.716Z,99.90
2018-01-31T22:54:43.890Z,99.90
2018-01-31T22:57:12.279Z,99.90
2018-01-31T22:59:41.436Z,99.90
2018-01-31T23:02:09.822Z,99.90
2018-01-31T23:04:38.247Z,99.90
2018-01-31T23:07:06.714Z,99.90
2018-01-31T23:09:35.157Z,99.90
2018-01-31T23:12:10.213Z,99.90
2018-01-31T23:14:44.163Z,99.90
2018-01-31T23:17:18.277Z,99.90
2018-01-31T23:19:46.615Z,99.90
2018-01-31T23:22:14.973Z,99.90
2018-01-31T23:24:43.297Z,99.90
2018-01-31T23:27:12.426Z,99.90
2018-01-31T23:29:40.760Z,99.90
2018-01-31T23:32:09.098Z,99.90
2018-01-31T23:34:37.495Z,99.90
2018-01-31T23:37:05.827Z,99.90
2018-01-31T23:39:34.222Z,99.90
2018-01-31T23:42:02.677Z,99.90
2018-01-31T23:44:32.512Z,99.90
2018-01-31T23:47:00.867Z,99.90
2018-01-31T23:49:30.153Z,99.90
2018-01-31T23:51:58.544Z,99.90
2018-01-31T23:54:27.776Z,99.90
2018-01-31T23:56:56.141Z,99.90
2018-01-31T23:59:24.480Z,99.90
